Cherry Valley, Ohio
Current Conditions -  °F | °C
As of 3:17 AM on Friday 19 Dec 2014 (Local Time) from KHZY Reporting Station
Overcast Overcast  
Wind Chill: 22°   Ceiling: 1500
Heat Index: 30°   Visibility: 10mi
Dew Point: 25°   Wind: 9mph
Humidity: 82%   Direction: 330°NNW
Pressure: 30.15"   Gusts: NA
Location:  41.6317°N, 80.577°W
Report Text: KHZY 190817Z AUTO 33008KT 10SM BKN015 OVC020 M01/M04 A3015 RMK AO2 T10111039
Loading
Personal Weather Stations






























Interactive Weather Map New forecast layout! Learn more

10-Day Weather Forecast

Advertisements
Track Severe Weather on mobile